sensor_id;sensor_type;location;lat;lon;timestamp;pressure;altitude;pressure_sealevel;temperature;humidity
49102;BME280;34913;47.520;19.186;2023-02-19T00:00:57;99931.63;;;11.38;65.89
49102;BME280;34913;47.520;19.186;2023-02-19T00:03:22;99926.38;;;11.27;66.50
49102;BME280;34913;47.520;19.186;2023-02-19T00:05:47;99927.16;;;11.39;66.38
49102;BME280;34913;47.520;19.186;2023-02-19T00:08:12;99936.50;;;11.33;66.19
49102;BME280;34913;47.520;19.186;2023-02-19T00:10:38;99938.63;;;11.39;66.13
49102;BME280;34913;47.520;19.186;2023-02-19T00:13:03;99935.84;;;11.20;66.60
49102;BME280;34913;47.520;19.186;2023-02-19T00:15:30;99930.22;;;11.13;66.39
49102;BME280;34913;47.520;19.186;2023-02-19T00:17:56;99933.28;;;11.09;66.62
49102;BME280;34913;47.520;19.186;2023-02-19T00:20:21;99930.22;;;11.13;66.43
49102;BME280;34913;47.520;19.186;2023-02-19T00:22:46;99923.00;;;11.15;66.36
49102;BME280;34913;47.520;19.186;2023-02-19T00:25:11;99921.81;;;11.08;66.62
49102;BME280;34913;47.520;19.186;2023-02-19T00:27:37;99920.72;;;11.11;66.48
49102;BME280;34913;47.520;19.186;2023-02-19T00:30:02;99932.09;;;10.92;66.95
49102;BME280;34913;47.520;19.186;2023-02-19T00:32:27;99926.13;;;11.00;66.61
49102;BME280;34913;47.520;19.186;2023-02-19T00:34:52;99922.16;;;10.94;66.65
49102;BME280;34913;47.520;19.186;2023-02-19T00:37:18;99933.81;;;11.03;66.39
49102;BME280;34913;47.520;19.186;2023-02-19T00:39:43;99931.94;;;10.94;66.85
49102;BME280;34913;47.520;19.186;2023-02-19T00:42:08;99936.00;;;10.98;66.87
49102;BME280;34913;47.520;19.186;2023-02-19T00:44:33;99930.44;;;11.01;66.57
49102;BME280;34913;47.520;19.186;2023-02-19T00:46:59;99934.75;;;10.92;66.83
49102;BME280;34913;47.520;19.186;2023-02-19T00:49:24;99945.53;;;10.79;67.54
49102;BME280;34913;47.520;19.186;2023-02-19T00:51:50;99943.59;;;10.81;67.18
49102;BME280;34913;47.520;19.186;2023-02-19T00:54:16;99944.22;;;10.74;67.49
49102;BME280;34913;47.520;19.186;2023-02-19T00:56:41;99944.78;;;10.68;67.59
49102;BME280;34913;47.520;19.186;2023-02-19T00:59:07;99948.28;;;10.68;67.43
49102;BME280;34913;47.520;19.186;2023-02-19T01:01:32;99946.59;;;10.67;67.76
49102;BME280;34913;47.520;19.186;2023-02-19T01:03:58;99938.41;;;10.80;66.96
49102;BME280;34913;47.520;19.186;2023-02-19T01:06:23;99942.69;;;10.71;67.22
49102;BME280;34913;47.520;19.186;2023-02-19T01:08:48;99942.75;;;10.81;66.99
49102;BME280;34913;47.520;19.186;2023-02-19T01:11:14;99938.69;;;10.77;67.02
49102;BME280;34913;47.520;19.186;2023-02-19T01:13:39;99940.16;;;10.70;67.46
49102;BME280;34913;47.520;19.186;2023-02-19T01:16:07;99934.47;;;10.74;67.24
49102;BME280;34913;47.520;19.186;2023-02-19T01:18:32;99928.38;;;10.62;67.41
49102;BME280;34913;47.520;19.186;2023-02-19T01:20:58;99937.88;;;10.65;67.73
49102;BME280;34913;47.520;19.186;2023-02-19T01:23:23;99937.53;;;10.70;67.54
49102;BME280;34913;47.520;19.186;2023-02-19T01:25:49;99921.00;;;10.66;67.61
49102;BME280;34913;47.520;19.186;2023-02-19T01:28:14;99911.94;;;10.69;67.18
49102;BME280;34913;47.520;19.186;2023-02-19T01:30:39;99922.06;;;10.75;66.84
49102;BME280;34913;47.520;19.186;2023-02-19T01:33:06;99925.91;;;10.71;67.03
49102;BME280;34913;47.520;19.186;2023-02-19T01:35:32;99925.91;;;10.71;67.38
49102;BME280;34913;47.520;19.186;2023-02-19T01:37:57;99915.88;;;10.74;67.21
49102;BME280;34913;47.520;19.186;2023-02-19T01:40:23;99924.09;;;10.71;67.61
49102;BME280;34913;47.520;19.186;2023-02-19T01:42:48;99911.81;;;10.70;67.83
49102;BME280;34913;47.520;19.186;2023-02-19T01:45:21;99922.44;;;10.70;67.87
49102;BME280;34913;47.520;19.186;2023-02-19T01:47:48;99918.81;;;10.71;67.71
49102;BME280;34913;47.520;19.186;2023-02-19T01:50:15;99928.06;;;10.77;67.54
49102;BME280;34913;47.520;19.186;2023-02-19T01:52:41;99937.00;;;10.76;67.85
49102;BME280;34913;47.520;19.186;2023-02-19T01:55:06;99928.56;;;10.71;67.95
49102;BME280;34913;47.520;19.186;2023-02-19T01:57:33;99930.66;;;10.67;67.90
49102;BME280;34913;47.520;19.186;2023-02-19T02:00:07;99922.56;;;10.69;67.79
49102;BME280;34913;47.520;19.186;2023-02-19T02:02:32;99937.56;;;10.58;67.58
49102;BME280;34913;47.520;19.186;2023-02-19T02:04:58;99932.19;;;10.49;68.31
49102;BME280;34913;47.520;19.186;2023-02-19T02:07:25;99929.19;;;10.42;68.24
49102;BME280;34913;47.520;19.186;2023-02-19T02:10:09;99916.03;;;10.52;68.16
49102;BME280;34913;47.520;19.186;2023-02-19T02:12:50;99899.31;;;10.40;68.58
49102;BME280;34913;47.520;19.186;2023-02-19T02:15:16;99913.16;;;10.44;68.57
49102;BME280;34913;47.520;19.186;2023-02-19T02:32:26;99908.94;;;10.41;68.96
49102;BME280;34913;47.520;19.186;2023-02-19T02:34:56;99906.38;;;10.51;69.12
49102;BME280;34913;47.520;19.186;2023-02-19T02:37:24;99913.59;;;10.49;69.28
49102;BME280;34913;47.520;19.186;2023-02-19T02:39:50;99917.09;;;10.49;69.44
49102;BME280;34913;47.520;19.186;2023-02-19T02:42:16;99910.44;;;10.55;69.41
49102;BME280;34913;47.520;19.186;2023-02-19T02:44:54;99894.66;;;10.53;69.61
49102;BME280;34913;47.520;19.186;2023-02-19T02:47:43;99913.16;;;10.44;70.14
49102;BME280;34913;47.520;19.186;2023-02-19T02:50:11;99912.44;;;10.42;70.45
49102;BME280;34913;47.520;19.186;2023-02-19T02:52:37;99915.41;;;10.48;70.41
49102;BME280;34913;47.520;19.186;2023-02-19T02:55:24;99912.47;;;10.62;70.00
49102;BME280;34913;47.520;19.186;2023-02-19T02:57:50;99911.63;;;10.62;70.00
49102;BME280;34913;47.520;19.186;2023-02-19T03:00:16;99908.28;;;10.49;70.26
49102;BME280;34913;47.520;19.186;2023-02-19T03:02:41;99912.63;;;10.50;70.20
49102;BME280;34913;47.520;19.186;2023-02-19T03:05:18;99915.38;;;10.59;69.91
49102;BME280;34913;47.520;19.186;2023-02-19T03:08:04;99911.34;;;10.44;69.97
49102;BME280;34913;47.520;19.186;2023-02-19T03:13:19;99925.00;;;10.40;70.87
49102;BME280;34913;47.520;19.186;2023-02-19T03:16:06;99919.22;;;10.34;71.07
49102;BME280;34913;47.520;19.186;2023-02-19T03:18:52;99916.91;;;10.41;71.12
49102;BME280;34913;47.520;19.186;2023-02-19T03:21:36;99910.25;;;10.47;70.99
49102;BME280;34913;47.520;19.186;2023-02-19T03:24:03;99913.16;;;10.44;71.56
49102;BME280;34913;47.520;19.186;2023-02-19T03:26:51;99921.38;;;10.41;71.49
49102;BME280;34913;47.520;19.186;2023-02-19T03:29:19;99915.34;;;10.39;71.80
49102;BME280;34913;47.520;19.186;2023-02-19T03:31:51;99919.75;;;10.28;72.32
49102;BME280;34913;47.520;19.186;2023-02-19T03:34:19;99927.06;;;10.36;72.01
49102;BME280;34913;47.520;19.186;2023-02-19T03:36:54;99936.91;;;10.45;71.51
49102;BME280;34913;47.520;19.186;2023-02-19T03:39:21;99932.94;;;10.40;71.76
49102;BME280;34913;47.520;19.186;2023-02-19T03:42:02;99933.44;;;10.33;72.32
49102;BME280;34913;47.520;19.186;2023-02-19T03:45:07;99924.63;;;10.44;71.64
49102;BME280;34913;47.520;19.186;2023-02-19T03:47:26;99925.72;;;10.62;70.33
49102;BME280;34913;47.520;19.186;2023-02-19T03:49:54;99933.13;;;10.59;70.53
49102;BME280;34913;47.520;19.186;2023-02-19T03:52:54;99927.47;;;10.52;70.75
49102;BME280;34913;47.520;19.186;2023-02-19T03:55:15;99926.63;;;10.52;70.89
49102;BME280;34913;47.520;19.186;2023-02-19T03:57:47;99932.16;;;10.60;70.71
49102;BME280;34913;47.520;19.186;2023-02-19T04:03:00;99920.53;;;10.40;71.63
49102;BME280;34913;47.520;19.186;2023-02-19T04:05:28;99922.69;;;10.46;71.24
49102;BME280;34913;47.520;19.186;2023-02-19T04:07:56;99917.84;;;10.51;71.10
49102;BME280;34913;47.520;19.186;2023-02-19T04:10:23;99919.44;;;10.43;71.36
49102;BME280;34913;47.520;19.186;2023-02-19T04:13:03;99924.09;;;10.50;70.98
49102;BME280;34913;47.520;19.186;2023-02-19T04:15:30;99926.88;;;10.49;70.91
49102;BME280;34913;47.520;19.186;2023-02-19T04:17:59;99932.31;;;10.47;71.08
49102;BME280;34913;47.520;19.186;2023-02-19T04:20:26;99931.75;;;10.44;71.04
49102;BME280;34913;47.520;19.186;2023-02-19T04:22:52;99924.28;;;10.38;71.41
49102;BME280;34913;47.520;19.186;2023-02-19T04:25:17;99925.19;;;10.27;71.92
49102;BME280;34913;47.520;19.186;2023-02-19T04:27:43;99923.94;;;10.31;71.84
49102;BME280;34913;47.520;19.186;2023-02-19T04:30:09;99924.06;;;10.18;72.08
49102;BME280;34913;47.520;19.186;2023-02-19T04:32:35;99925.78;;;10.19;72.20
49102;BME280;34913;47.520;19.186;2023-02-19T04:35:00;99921.09;;;10.23;71.78
49102;BME280;34913;47.520;19.186;2023-02-19T04:37:26;99920.63;;;10.06;72.59
49102;BME280;34913;47.520;19.186;2023-02-19T04:39:51;99927.25;;;10.01;72.99
49102;BME280;34913;47.520;19.186;2023-02-19T04:42:16;99920.88;;;10.03;72.65
49102;BME280;34913;47.520;19.186;2023-02-19T04:44:41;99914.63;;;10.04;72.11
49102;BME280;34913;47.520;19.186;2023-02-19T04:47:07;99914.13;;;9.99;72.69
49102;BME280;34913;47.520;19.186;2023-02-19T04:49:32;99905.81;;;10.04;72.55
49102;BME280;34913;47.520;19.186;2023-02-19T04:51:57;99908.00;;;9.99;72.75
49102;BME280;34913;47.520;19.186;2023-02-19T04:54:22;99901.25;;;9.95;72.74
49102;BME280;34913;47.520;19.186;2023-02-19T04:56:48;99907.72;;;10.02;72.76
49102;BME280;34913;47.520;19.186;2023-02-19T04:59:14;99912.53;;;10.08;71.85
49102;BME280;34913;47.520;19.186;2023-02-19T05:01:40;99910.28;;;10.03;72.28
49102;BME280;34913;47.520;19.186;2023-02-19T05:04:05;99893.28;;;10.06;71.82
49102;BME280;34913;47.520;19.186;2023-02-19T05:06:30;99898.69;;;10.04;71.82
49102;BME280;34913;47.520;19.186;2023-02-19T05:08:56;99893.75;;;10.00;71.51
49102;BME280;34913;47.520;19.186;2023-02-19T05:11:21;99897.50;;;9.97;71.69
49102;BME280;34913;47.520;19.186;2023-02-19T05:13:47;99897.69;;;10.17;70.94
49102;BME280;34913;47.520;19.186;2023-02-19T05:16:13;99911.19;;;10.25;70.70
49102;BME280;34913;47.520;19.186;2023-02-19T05:18:40;99912.28;;;10.22;70.37
49102;BME280;34913;47.520;19.186;2023-02-19T05:21:06;99909.66;;;10.11;70.98
49102;BME280;34913;47.520;19.186;2023-02-19T05:23:31;99916.25;;;10.17;70.88
49102;BME280;34913;47.520;19.186;2023-02-19T05:25:56;99924.69;;;10.11;71.18
49102;BME280;34913;47.520;19.186;2023-02-19T05:28:22;99917.09;;;10.17;70.93
49102;BME280;34913;47.520;19.186;2023-02-19T05:30:52;99918.06;;;10.16;71.36
49102;BME280;34913;47.520;19.186;2023-02-19T05:33:19;99922.66;;;10.14;71.49
49102;BME280;34913;47.520;19.186;2023-02-19T05:35:45;99916.47;;;10.25;70.84
49102;BME280;34913;47.520;19.186;2023-02-19T05:38:11;99927.31;;;10.33;70.48
49102;BME280;34913;47.520;19.186;2023-02-19T05:40:36;99925.19;;;10.27;70.71
49102;BME280;34913;47.520;19.186;2023-02-19T05:43:02;99926.38;;;10.23;70.87
49102;BME280;34913;47.520;19.186;2023-02-19T05:45:27;99915.53;;;10.15;71.27
49102;BME280;34913;47.520;19.186;2023-02-19T05:47:52;99908.06;;;10.08;71.47
49102;BME280;34913;47.520;19.186;2023-02-19T05:50:18;99917.59;;;10.11;71.60
49102;BME280;34913;47.520;19.186;2023-02-19T05:52:43;99912.31;;;10.11;71.54
49102;BME280;34913;47.520;19.186;2023-02-19T05:55:09;99921.69;;;10.15;71.38
49102;BME280;34913;47.520;19.186;2023-02-19T05:57:41;99917.47;;;10.13;71.70
49102;BME280;34913;47.520;19.186;2023-02-19T06:00:07;99926.16;;;10.15;71.61
49102;BME280;34913;47.520;19.186;2023-02-19T06:02:33;99918.91;;;10.17;71.93
49102;BME280;34913;47.520;19.186;2023-02-19T06:04:58;99915.16;;;10.19;71.68
49102;BME280;34913;47.520;19.186;2023-02-19T06:07:23;99923.34;;;10.16;72.17
49102;BME280;34913;47.520;19.186;2023-02-19T06:09:49;99933.25;;;10.14;72.66
49102;BME280;34913;47.520;19.186;2023-02-19T06:12:15;99938.31;;;10.17;72.63
49102;BME280;34913;47.520;19.186;2023-02-19T06:14:40;99928.97;;;10.34;72.08
49102;BME280;34913;47.520;19.186;2023-02-19T06:17:05;99932.25;;;10.38;72.53
49102;BME280;34913;47.520;19.186;2023-02-19T06:19:31;99935.53;;;10.30;73.21
49102;BME280;34913;47.520;19.186;2023-02-19T06:21:56;99937.56;;;10.26;75.73
49102;BME280;34913;47.520;19.186;2023-02-19T06:24:21;99922.63;;;10.25;76.48
49102;BME280;34913;47.520;19.186;2023-02-19T06:26:46;99915.50;;;10.26;77.04
49102;BME280;34913;47.520;19.186;2023-02-19T06:29:12;99908.28;;;10.28;77.45
49102;BME280;34913;47.520;19.186;2023-02-19T06:31:37;99904.19;;;10.24;77.85
49102;BME280;34913;47.520;19.186;2023-02-19T06:34:03;99911.53;;;10.20;78.40
49102;BME280;34913;47.520;19.186;2023-02-19T06:36:28;99914.97;;;10.11;79.15
49102;BME280;34913;47.520;19.186;2023-02-19T06:38:58;99914.69;;;10.14;78.79
49102;BME280;34913;47.520;19.186;2023-02-19T06:41:23;99905.75;;;10.15;78.80
49102;BME280;34913;47.520;19.186;2023-02-19T06:43:48;99909.63;;;10.22;78.86
49102;BME280;34913;47.520;19.186;2023-02-19T06:46:14;99905.50;;;10.18;79.05
49102;BME280;34913;47.520;19.186;2023-02-19T06:48:39;99909.38;;;10.14;79.60
49102;BME280;34913;47.520;19.186;2023-02-19T06:51:05;99906.75;;;10.14;79.88
49102;BME280;34913;47.520;19.186;2023-02-19T06:53:31;99908.91;;;10.09;80.14
49102;BME280;34913;47.520;19.186;2023-02-19T06:56:00;99915.59;;;10.03;80.61
49102;BME280;34913;47.520;19.186;2023-02-19T06:58:25;99920.41;;;9.98;81.02
49102;BME280;34913;47.520;19.186;2023-02-19T07:00:51;99912.09;;;9.92;81.76
49102;BME280;34913;47.520;19.186;2023-02-19T07:03:17;99907.91;;;9.89;82.09
49102;BME280;34913;47.520;19.186;2023-02-19T07:05:42;99913.91;;;9.91;82.04
49102;BME280;34913;47.520;19.186;2023-02-19T07:08:08;99912.59;;;9.86;82.60
49102;BME280;34913;47.520;19.186;2023-02-19T07:10:33;99923.47;;;9.83;82.79
49102;BME280;34913;47.520;19.186;2023-02-19T07:12:58;99926.84;;;9.73;83.40
49102;BME280;34913;47.520;19.186;2023-02-19T07:15:23;99922.88;;;9.68;83.80
49102;BME280;34913;47.520;19.186;2023-02-19T07:17:49;99920.94;;;9.70;84.46
49102;BME280;34913;47.520;19.186;2023-02-19T07:20:14;99922.97;;;9.77;84.12
49102;BME280;34913;47.520;19.186;2023-02-19T07:22:39;99916.59;;;9.80;83.66
49102;BME280;34913;47.520;19.186;2023-02-19T07:25:04;99917.53;;;9.79;84.05
49102;BME280;34913;47.520;19.186;2023-02-19T07:27:30;99922.13;;;9.77;83.92
49102;BME280;34913;47.520;19.186;2023-02-19T07:29:55;99918.41;;;9.79;83.94
49102;BME280;34913;47.520;19.186;2023-02-19T07:32:20;99906.66;;;9.93;82.94
49102;BME280;34913;47.520;19.186;2023-02-19T07:34:46;99910.56;;;9.89;83.22
49102;BME280;34913;47.520;19.186;2023-02-19T07:37:11;99910.56;;;9.89;83.38
49102;BME280;34913;47.520;19.186;2023-02-19T07:39:36;99911.75;;;9.96;82.49
49102;BME280;34913;47.520;19.186;2023-02-19T07:42:01;99904.88;;;9.94;83.00
49102;BME280;34913;47.520;19.186;2023-02-19T07:44:27;99892.34;;;9.96;82.73
49102;BME280;34913;47.520;19.186;2023-02-19T07:46:52;99886.66;;;10.00;82.08
49102;BME280;34913;47.520;19.186;2023-02-19T07:49:17;99885.31;;;10.06;81.81
49102;BME280;34913;47.520;19.186;2023-02-19T07:51:43;99888.94;;;10.05;81.96
49102;BME280;34913;47.520;19.186;2023-02-19T07:54:08;99893.22;;;10.17;80.61
49102;BME280;34913;47.520;19.186;2023-02-19T07:56:33;99893.22;;;10.17;80.54
49102;BME280;34913;47.520;19.186;2023-02-19T07:58:59;99898.66;;;10.16;80.14
49102;BME280;34913;47.520;19.186;2023-02-19T08:01:24;99907.59;;;10.15;80.19
49102;BME280;34913;47.520;19.186;2023-02-19T08:04:09;99908.28;;;10.17;79.32
49102;BME280;34913;47.520;19.186;2023-02-19T08:06:34;99911.78;;;10.17;79.56
49102;BME280;34913;47.520;19.186;2023-02-19T08:08:59;99923.16;;;10.08;79.86
49102;BME280;34913;47.520;19.186;2023-02-19T08:11:25;99926.50;;;10.10;80.13
49102;BME280;34913;47.520;19.186;2023-02-19T08:14:09;99929.69;;;10.04;81.15
49102;BME280;34913;47.520;19.186;2023-02-19T08:16:34;99928.22;;;10.11;80.99
49102;BME280;34913;47.520;19.186;2023-02-19T08:18:59;99935.78;;;10.16;80.99
49102;BME280;34913;47.520;19.186;2023-02-19T08:21:25;99936.28;;;10.10;82.55
49102;BME280;34913;47.520;19.186;2023-02-19T08:23:50;99939.75;;;10.10;83.65
49102;BME280;34913;47.520;19.186;2023-02-19T08:26:15;99941.56;;;10.10;85.95
49102;BME280;34913;47.520;19.186;2023-02-19T08:28:41;99944.00;;;10.01;86.74
49102;BME280;34913;47.520;19.186;2023-02-19T08:31:06;99950.63;;;10.07;87.59
49102;BME280;34913;47.520;19.186;2023-02-19T08:33:32;99941.56;;;10.10;87.56
49102;BME280;34913;47.520;19.186;2023-02-19T08:36:00;99950.16;;;10.13;86.67
49102;BME280;34913;47.520;19.186;2023-02-19T08:38:28;99952.84;;;9.91;89.96
49102;BME280;34913;47.520;19.186;2023-02-19T08:40:53;99951.03;;;9.91;89.43
49102;BME280;34913;47.520;19.186;2023-02-19T08:43:19;99950.69;;;9.96;89.08
49102;BME280;34913;47.520;19.186;2023-02-19T08:45:44;99950.69;;;9.85;90.21
49102;BME280;34913;47.520;19.186;2023-02-19T08:48:11;99944.06;;;9.79;92.22
49102;BME280;34913;47.520;19.186;2023-02-19T08:50:36;99928.66;;;9.73;92.50
49102;BME280;34913;47.520;19.186;2023-02-19T08:53:02;99931.19;;;9.74;92.46
49102;BME280;34913;47.520;19.186;2023-02-19T08:55:27;99932.13;;;9.85;92.55
49102;BME280;34913;47.520;19.186;2023-02-19T08:57:53;99926.81;;;9.85;93.04
49102;BME280;34913;47.520;19.186;2023-02-19T09:00:18;99932.25;;;9.83;93.94
49102;BME280;34913;47.520;19.186;2023-02-19T09:02:45;99931.53;;;9.81;94.20
49102;BME280;34913;47.520;19.186;2023-02-19T09:05:10;99924.56;;;9.69;95.74
49102;BME280;34913;47.520;19.186;2023-02-19T09:07:36;99927.25;;;9.58;97.95
49102;BME280;34913;47.520;19.186;2023-02-19T09:10:01;99921.94;;;9.58;98.89
49102;BME280;34913;47.520;19.186;2023-02-19T09:12:26;99940.34;;;9.59;99.48
49102;BME280;34913;47.520;19.186;2023-02-19T09:14:52;99933.84;;;9.52;100.00
49102;BME280;34913;47.520;19.186;2023-02-19T09:17:17;99938.06;;;9.55;100.00
49102;BME280;34913;47.520;19.186;2023-02-19T09:19:42;99930.72;;;9.58;100.00
49102;BME280;34913;47.520;19.186;2023-02-19T09:22:08;99919.25;;;9.69;100.00
49102;BME280;34913;47.520;19.186;2023-02-19T09:24:33;99915.63;;;9.70;100.00
49102;BME280;34913;47.520;19.186;2023-02-19T09:26:59;99927.25;;;9.58;100.00
49102;BME280;34913;47.520;19.186;2023-02-19T09:29:24;99934.13;;;9.49;100.00
49102;BME280;34913;47.520;19.186;2023-02-19T09:31:50;99923.88;;;9.44;100.00
49102;BME280;34913;47.520;19.186;2023-02-19T09:34:15;99932.53;;;9.46;100.00
49102;BME280;34913;47.520;19.186;2023-02-19T09:36:41;99924.84;;;9.43;100.00
49102;BME280;34913;47.520;19.186;2023-02-19T09:39:07;99916.75;;;9.45;100.00
49102;BME280;34913;47.520;19.186;2023-02-19T09:41:33;99918.44;;;9.57;100.00
49102;BME280;34913;47.520;19.186;2023-02-19T09:43:59;99911.56;;;9.55;100.00
49102;BME280;34913;47.520;19.186;2023-02-19T09:46:29;99908.44;;;9.61;100.00
49102;BME280;34913;47.520;19.186;2023-02-19T09:49:14;99910.84;;;9.64;100.00
49102;BME280;34913;47.520;19.186;2023-02-19T09:51:42;99903.13;;;9.72;100.00
49102;BME280;34913;47.520;19.186;2023-02-19T09:54:31;99904.91;;;9.71;100.00
49102;BME280;34913;47.520;19.186;2023-02-19T09:56:55;99892.28;;;9.75;100.00
49102;BME280;34913;47.520;19.186;2023-02-19T10:02:17;99893.28;;;9.95;100.00
49102;BME280;34913;47.520;19.186;2023-02-19T10:04:44;99875.06;;;10.01;100.00
49102;BME280;34913;47.520;19.186;2023-02-19T10:07:17;99877.16;;;10.19;100.00
49102;BME280;34913;47.520;19.186;2023-02-19T10:09:44;99867.13;;;10.33;100.00
49102;BME280;34913;47.520;19.186;2023-02-19T10:12:22;99866.81;;;10.48;100.00
49102;BME280;34913;47.520;19.186;2023-02-19T10:14:49;99861.88;;;10.85;100.00
49102;BME280;34913;47.520;19.186;2023-02-19T10:17:20;99859.44;;;11.03;100.00
49102;BME280;34913;47.520;19.186;2023-02-19T10:19:46;99859.72;;;11.30;100.00
49102;BME280;34913;47.520;19.186;2023-02-19T10:22:11;99850.63;;;11.42;96.79
49102;BME280;34913;47.520;19.186;2023-02-19T10:24:37;99852.84;;;11.78;94.89
49102;BME280;34913;47.520;19.186;2023-02-19T10:27:09;99847.53;;;12.16;93.94
49102;BME280;34913;47.520;19.186;2023-02-19T10:29:35;99839.69;;;12.44;91.22
49102;BME280;34913;47.520;19.186;2023-02-19T10:32:10;99827.66;;;12.86;87.23
49102;BME280;34913;47.520;19.186;2023-02-19T10:34:36;99815.59;;;12.92;83.11
49102;BME280;34913;47.520;19.186;2023-02-19T10:37:01;99805.63;;;12.94;80.35
49102;BME280;34913;47.520;19.186;2023-02-19T10:39:45;99807.03;;;12.98;80.47
49102;BME280;34913;47.520;19.186;2023-02-19T10:42:29;99804.63;;;13.05;79.41
49102;BME280;34913;47.520;19.186;2023-02-19T10:44:56;99815.28;;;13.05;77.29
49102;BME280;34913;47.520;19.186;2023-02-19T10:47:25;99794.69;;;12.97;76.53
49102;BME280;34913;47.520;19.186;2023-02-19T10:49:51;99793.00;;;12.96;78.32
49102;BME280;34913;47.520;19.186;2023-02-19T10:52:22;99792.75;;;13.17;75.93
49102;BME280;34913;47.520;19.186;2023-02-19T10:54:50;99784.91;;;13.16;74.46
49102;BME280;34913;47.520;19.186;2023-02-19T10:59:49;99775.47;;;13.49;72.13
49102;BME280;34913;47.520;19.186;2023-02-19T11:02:15;99778.00;;;13.50;71.07
49102;BME280;34913;47.520;19.186;2023-02-19T11:04:41;99776.88;;;13.71;71.97
49102;BME280;34913;47.520;19.186;2023-02-19T11:07:07;99765.53;;;13.86;69.99
49102;BME280;34913;47.520;19.186;2023-02-19T11:09:35;99763.91;;;13.93;70.38
49102;BME280;34913;47.520;19.186;2023-02-19T11:12:00;99758.03;;;14.08;69.73
49102;BME280;34913;47.520;19.186;2023-02-19T11:14:28;99757.88;;;14.09;68.95
49102;BME280;34913;47.520;19.186;2023-02-19T11:16:57;99744.03;;;14.32;68.09
49102;BME280;34913;47.520;19.186;2023-02-19T11:19:40;99745.03;;;14.57;68.24
49102;BME280;34913;47.520;19.186;2023-02-19T11:24:50;99736.16;;;14.82;63.18
49102;BME280;34913;47.520;19.186;2023-02-19T11:27:22;99741.53;;;14.90;64.56
49102;BME280;34913;47.520;19.186;2023-02-19T11:29:48;99738.56;;;14.93;62.24
49102;BME280;34913;47.520;19.186;2023-02-19T11:34:45;99731.66;;;14.91;62.83
49102;BME280;34913;47.520;19.186;2023-02-19T11:37:17;99729.66;;;14.93;61.83
49102;BME280;34913;47.520;19.186;2023-02-19T11:39:45;99728.22;;;15.06;62.38
49102;BME280;34913;47.520;19.186;2023-02-19T11:42:14;99731.41;;;15.02;59.80
49102;BME280;34913;47.520;19.186;2023-02-19T11:47:21;99733.56;;;15.06;59.57
49102;BME280;34913;47.520;19.186;2023-02-19T11:52:41;99729.38;;;15.04;59.60
49102;BME280;34913;47.520;19.186;2023-02-19T11:55:20;99720.97;;;14.91;59.53
49102;BME280;34913;47.520;19.186;2023-02-19T12:05:37;99707.34;;;15.02;57.44
49102;BME280;34913;47.520;19.186;2023-02-19T12:13:12;99703.31;;;15.06;56.94
49102;BME280;34913;47.520;19.186;2023-02-19T12:23:32;99700.88;;;14.70;56.31
49102;BME280;34913;47.520;19.186;2023-02-19T12:26:03;99681.91;;;14.90;55.72
49102;BME280;34913;47.520;19.186;2023-02-19T12:43:58;99704.38;;;15.21;55.73
49102;BME280;34913;47.520;19.186;2023-02-19T12:46:32;99712.03;;;15.16;56.38
49102;BME280;34913;47.520;19.186;2023-02-19T12:59:13;99728.19;;;14.56;58.85
49102;BME280;34913;47.520;19.186;2023-02-19T13:01:55;99724.97;;;14.27;60.95
49102;BME280;34913;47.520;19.186;2023-02-19T13:04:24;99726.16;;;14.06;60.71
49102;BME280;34913;47.520;19.186;2023-02-19T13:11:56;99721.41;;;13.56;62.25
49102;BME280;34913;47.520;19.186;2023-02-19T13:14:36;99725.13;;;13.46;62.61
49102;BME280;34913;47.520;19.186;2023-02-19T13:19:49;99708.06;;;13.56;61.18
49102;BME280;34913;47.520;19.186;2023-02-19T13:31:11;99720.91;;;13.25;70.58
49102;BME280;34913;47.520;19.186;2023-02-19T13:36:24;99725.44;;;12.60;77.33
49102;BME280;34913;47.520;19.186;2023-02-19T13:38:51;99720.13;;;12.60;76.84
49102;BME280;34913;47.520;19.186;2023-02-19T13:41:18;99715.34;;;12.26;76.87
49102;BME280;34913;47.520;19.186;2023-02-19T13:43:44;99722.75;;;12.23;75.94
49102;BME280;34913;47.520;19.186;2023-02-19T13:46:11;99730.34;;;12.18;75.78
49102;BME280;34913;47.520;19.186;2023-02-19T13:48:39;99724.06;;;11.99;77.66
49102;BME280;34913;47.520;19.186;2023-02-19T13:58:56;99735.41;;;11.92;79.36
49102;BME280;34913;47.520;19.186;2023-02-19T14:04:06;99739.19;;;11.99;79.99
49102;BME280;34913;47.520;19.186;2023-02-19T14:12:01;99750.69;;;11.90;80.64
49102;BME280;34913;47.520;19.186;2023-02-19T14:14:34;99761.91;;;11.93;79.12
49102;BME280;34913;47.520;19.186;2023-02-19T14:17:01;99765.25;;;11.86;76.28
49102;BME280;34913;47.520;19.186;2023-02-19T14:24:54;99759.50;;;11.81;77.19
49102;BME280;34913;47.520;19.186;2023-02-19T14:27:19;99776.16;;;11.92;75.35
49102;BME280;34913;47.520;19.186;2023-02-19T14:29:45;99791.69;;;11.97;73.22
49102;BME280;34913;47.520;19.186;2023-02-19T14:32:13;99791.41;;;11.90;73.77
49102;BME280;34913;47.520;19.186;2023-02-19T14:34:43;99802.34;;;11.97;70.33
49102;BME280;34913;47.520;19.186;2023-02-19T14:37:10;99796.72;;;11.90;71.22
49102;BME280;34913;47.520;19.186;2023-02-19T14:39:40;99817.88;;;11.92;70.23
49102;BME280;34913;47.520;19.186;2023-02-19T14:47:12;99822.78;;;11.96;68.48
49102;BME280;34913;47.520;19.186;2023-02-19T14:49:58;99814.38;;;12.01;66.62
49102;BME280;34913;47.520;19.186;2023-02-19T14:52:26;99816.47;;;11.88;67.72
49102;BME280;34913;47.520;19.186;2023-02-19T14:54:55;99804.38;;;11.64;68.34
49102;BME280;34913;47.520;19.186;2023-02-19T14:57:24;99823.53;;;11.68;68.71
49102;BME280;34913;47.520;19.186;2023-02-19T14:59:52;99800.91;;;11.73;69.23
49102;BME280;34913;47.520;19.186;2023-02-19T15:02:18;99801.03;;;11.62;68.62